Amboy, IN (46911)

8:55 AM EST on January 31, 2015 (GMT -0500)
Vincent Farms - Amboy, IN | Change Station
CLOSE
Current Station
Personal Weather Station
Location: Amboy, IN
Elevation: 833 ft
Nearby Weather Stations
Active Advisory: Winter Storm Warning

Elev 833 ft 40.59 °N, 85.98 °W | Updated 14 minutes ago

Mostly Cloudy
Mostly Cloudy
23.4 °F
Feels Like 15 °F
N
7.0
Wind Variable Wind from South
Gusts 9.0 mph

Today
High -- | Low -- °F
--% Chance of Precip.
Yesterday
High -- | Low -- °F
Precip. -- in
7:54 AM 6:00 PM
Waxing Gibbous, 89% visible
Pressure 30.31 in
Visibility 10.0 miles
Clouds Mostly Cloudy 9500 ft
Windchill 15 °F
Dew Point 20 °F
Humidity 85%
Rainfall 0.00 in
Snow Depth Not available.
UV 0.0 out of 12
Pollen .10 out of 12
Air Quality Not available.
Flu Activity Not available.
METAR KOKK 311335Z AUTO 20005KT 10SM BKN095 M05/M09 A3031 RMK AO1

More Conditions Fewer Conditions

Pressure 30.31 in
Visibility 10.0 miles
Clouds Mostly Cloudy 9500 ft
Windchill 15 °F
Dew Point 20 °F
Humidity 85%
Rainfall 0.00 in
Snow Depth Not available.
UV 0.0 out of 12
Pollen .10 out of 12
Air Quality Not available.
Flu Activity Not available.
METAR KOKK 311335Z AUTO 20005KT 10SM BKN095 M05/M09 A3031 RMK AO1

More Conditions Fewer Conditions

10-Day Weather Forecast

Almanac

Astronomy

Jan. 31, 2015 Rise Set
Actual Time
Civil Twilight
Nautical Twilight
Astronomical Twilight
Moon
Length of Visible Light
Length of Day
Tomorrow will be .
, % of the Moon is Illuminated

Today's Extremes

State Highs State Lows

Community

WunderPhotos

Upload Photos

1,792,048 photos uploaded!

WunderBlogs® & News

Nearby

Air Quality

  Air Quality AQ Index Pollutant
Not available.

Snow Depth

Station Depth Elevation

Earthquake Activity

City Distance Mag. Time & Date
Minimum magnitude displayed is 2.5.

Coastal Water Temperatures

Place Temperature

Nearby Weather Stations